Friday, October 19, 2018, 4:04 AM EDT
Back to Local

KFME, Fort Meade / Tipton

Location: Laurel, MD, United States Lat: 39.083
Local Time: 4:04 AM EDT ( 8:04 GMT) Lon: -76.767
Time Zone: US/Eastern Elev: 150 ft

Show me the last for .
Show Coded

Time T Td Feel RH Dir Speed Gust Alt SLP Vis Weather Sky Remarks
2018-10-19 03:42 34 34 - 100 - Calm - 30.40 - 10 CLR None
2018-10-19 03:21 34 34 - 100 - Calm - 30.40 - 10 CLR None
2018-10-19 03:03 34 34 - 100 - Calm - 30.40 - 10 CLR None
2018-10-19 02:42 34 34 - 100 - Calm - 30.41 - 10 CLR None
2018-10-19 02:21 34 34 - 100 - Calm - 30.41 - 10 CLR None
2018-10-19 02:03 34 34 - 100 - Calm - 30.40 - 10 CLR None
2018-10-19 01:42 36 34 - 93 - Calm - 30.41 - 10 CLR None
2018-10-19 01:21 36 36 - 100 - Calm - 30.40 - 10 CLR None
2018-10-19 01:03 36 36 - 100 - Calm - 30.41 - 10 CLR None
2018-10-19 00:42 36 36 - 100 - Calm - 30.41 - 10 CLR None
2018-10-19 00:21 36 34 - 93 - Calm - 30.41 - 10 CLR None
2018-10-19 00:03 36 36 - 100 - Calm - 30.42 - 10 CLR None
2018-10-18 23:42 36 36 - 100 - Calm - 30.42 - 10 CLR None
2018-10-18 23:21 36 36 - 100 - Calm - 30.42 - 10 CLR None
2018-10-18 23:03 37 36 - 93 - Calm - 30.42 - 10 CLR None
2018-10-18 22:42 37 36 - 93 - Calm - 30.42 - 10 CLR None
2018-10-18 22:21 37 36 - 93 - Calm - 30.42 - 10 CLR None
2018-10-18 22:03 37 36 - 93 - Calm - 30.42 - 10 CLR None
2018-10-18 21:42 37 37 - 100 - Calm - 30.42 - 10 CLR None
2018-10-18 21:21 37 37 - 100 - Calm - 30.42 - 10 CLR None
2018-10-18 21:03 39 37 - 93 - Calm - 30.42 - 10 CLR None
2018-10-18 20:42 39 37 - 93 - Calm - 30.42 - 10 CLR None
2018-10-18 20:21 41 37 - 86 - Calm - 30.42 - 10 CLR None
2018-10-18 20:03 41 37 - 86 - Calm - 30.42 - 10 CLR None
2018-10-18 19:42 41 37 - 86 - Calm - 30.42 - 10 CLR None
2018-10-18 19:21 43 37 - 81 - Calm - 30.42 - 10 CLR None
2018-10-18 19:03 43 37 - 81 - Calm - 30.42 - 10 CLR None
2018-10-18 18:42 45 37 - 75 - Calm - 30.42 - 10 CLR None
2018-10-18 18:21 46 37 - 70 - Calm - 30.41 - 10 CLR None
2018-10-18 18:03 48 37 47 66 300° 3 - 30.41 - 10 CLR None
2018-10-18 17:42 50 36 - 57 - Calm - 30.40 - 10 CLR None
2018-10-18 17:21 52 34 - 50 300° 7 - 30.40 - 10 CLR None
2018-10-18 17:03 52 34 - 50 310° 6 - 30.40 - 10 CLR None
2018-10-18 16:42 52 34 - 50 260° 7 - 30.40 - 10 CLR None
2018-10-18 16:21 54 34 - 46 290° 9 - 30.40 - 10 CLR None
2018-10-18 16:03 54 34 - 46 290° 10 16 30.40 - 10 CLR None
2018-10-18 15:42 54 34 - 46 290° 9 - 30.40 - 10 CLR None
2018-10-18 15:21 54 32 - 43 300° 8 - 30.40 - 10 CLR None
2018-10-18 15:03 55 34 - 43 300° 3 - 30.41 - 10 CLR None
2018-10-18 14:42 55 32 - 40 280° 12 21 30.41 - 10 CLR None
2018-10-18 14:21 55 34 - 43 350° 7 - 30.42 - 10 CLR None
2018-10-18 14:03 54 32 - 43 320° 12 16 30.42 - 10 CLR None
2018-10-18 13:42 54 34 - 46 300° 9 16 30.43 - 10 CLR None
2018-10-18 13:21 54 32 - 43 320° 9 - 30.43 - 10 CLR None
2018-10-18 13:03 54 32 - 43 270° 10 - 30.44 - 10 CLR None
2018-10-18 12:42 54 32 - 43 300° 8 18 30.45 - 10 CLR None
2018-10-18 12:21 54 32 - 43 300° 9 - 30.45 - 10 CLR None
2018-10-18 12:03 52 32 - 46 310° 9 16 30.45 - 10 CLR None
2018-10-18 11:42 52 32 - 46 280° 8 - 30.45 - 10 CLR None
2018-10-18 11:21 52 32 - 46 310° 5 17 30.46 - 10 CLR None
2018-10-18 11:03 52 32 - 46 300° 7 18 30.46 - 10 CLR None
2018-10-18 10:42 50 32 46 49 310° 10 - 30.46 - 10 SCT055 None
2018-10-18 10:21 50 32 44 49 310° 8 17 30.46 - 10 CLR None
2018-10-18 10:03 50 32 47 49 290° 8 - 30.46 - 10 CLR None
2018-10-18 09:42 46 32 42 56 310° 9 - 30.45 - 10 CLR None
2018-10-18 09:21 46 32 44 56 280° 5 - 30.45 - 10 CLR None
2018-10-18 09:03 45 32 40 61 290° 9 - 30.45 - 10 CLR None
2018-10-18 08:42 43 36 39 75 280° 6 - 30.44 - 10 CLR None
2018-10-18 08:21 39 34 36 80 290° 5 - 30.43 - 10 CLR None
2018-10-18 08:03 39 34 - 80 - Calm - 30.42 - 10 CLR None
2018-10-18 07:42 37 34 34 86 280° 5 - 30.42 - 10 CLR None
2018-10-18 07:21 37 34 - 86 - Calm - 30.41 - 10 CLR None
2018-10-18 07:03 37 34 - 86 - Calm - 30.40 - 10 CLR None
2018-10-18 06:21 41 34 - 75 - Calm - 30.39 - 10 CLR None
2018-10-18 06:03 41 34 38 75 310° 5 - 30.38 - 10 CLR None
2018-10-18 05:42 41 34 39 75 330° 3 - 30.38 - 10 CLR None
2018-10-18 05:00 45 32 - 61 - Calm - 30.36 - 10 SCT070 None
2018-10-18 04:42 46 32 43 56 330° 7 - 30.35 - 10 CLR None
2018-10-18 04:21 46 32 44 56 310° 6 - 30.34 - 10 SCT075 None

Support USWX by starting your Amazon purchase here.